createdAt,value
2017-08-28T10:17:55.417Z,28.57
2017-08-28T10:20:26.604Z,28.88
2017-08-28T10:22:56.606Z,29.15
2017-08-28T10:25:26.048Z,29.25
2017-08-28T10:27:58.353Z,29.28
2017-08-28T10:30:27.804Z,29.13
2017-08-28T10:32:59.053Z,29.25
2017-08-28T10:35:28.498Z,29.12
2017-08-28T10:37:59.756Z,29.14
2017-08-28T10:40:29.734Z,29.17
2017-08-28T10:42:59.193Z,29.22
2017-08-28T10:45:32.569Z,28.85
2017-08-28T10:48:02.020Z,28.79
2017-08-28T10:50:33.265Z,29.19
2017-08-28T10:53:17.160Z,29.19
2017-08-28T10:55:48.436Z,29.30
2017-08-28T10:58:17.893Z,29.40
2017-08-28T11:00:49.091Z,29.77
2017-08-28T11:03:18.546Z,29.92
2017-08-28T11:05:48.642Z,30.12
2017-08-28T11:08:19.563Z,30.18
2017-08-28T11:10:49.331Z,30.21
2017-08-28T11:13:22.769Z,30.15
2017-08-28T11:15:53.164Z,30.15
2017-08-28T11:18:24.575Z,30.34
2017-08-28T11:20:54.597Z,30.40
2017-08-28T11:23:24.648Z,30.71
2017-08-28T11:25:54.097Z,30.42
2017-08-28T11:28:27.338Z,30.43
2017-08-28T11:30:56.784Z,30.75
2017-08-28T11:33:27.192Z,31.01
2017-08-28T11:35:59.098Z,31.22
2017-08-28T11:38:30.862Z,30.97
2017-08-28T11:41:01.965Z,30.55
2017-08-28T11:43:35.054Z,30.35
2017-08-28T11:46:05.827Z,30.07
2017-08-28T11:48:38.901Z,29.87
2017-08-28T11:51:10.366Z,29.47
2017-08-28T11:53:39.829Z,29.41
2017-08-28T11:56:10.668Z,28.99
2017-08-28T11:58:41.704Z,28.42
2017-08-28T12:01:13.182Z,27.76
2017-08-28T12:03:43.604Z,27.13
2017-08-28T12:06:14.408Z,27.12
2017-08-28T12:08:45.525Z,26.67
2017-08-28T12:11:14.978Z,26.49
2017-08-28T12:13:46.259Z,26.81
2017-08-28T12:16:18.419Z,27.09
2017-08-28T12:18:49.456Z,27.04
2017-08-28T12:21:21.455Z,27.08
2017-08-28T12:23:53.445Z,26.76
2017-08-28T12:26:22.909Z,26.65
2017-08-28T12:28:53.318Z,26.29
2017-08-28T12:31:24.259Z,25.91
2017-08-28T12:33:53.548Z,25.72
2017-08-28T12:36:23.721Z,25.53
2017-08-28T12:38:54.575Z,25.46
2017-08-28T12:41:24.396Z,25.63
2017-08-28T12:43:55.573Z,25.57
2017-08-28T12:46:25.553Z,25.94
2017-08-28T12:48:56.572Z,25.92
2017-08-28T12:51:26.681Z,27.38
2017-08-28T12:53:56.696Z,28.88
2017-08-28T12:56:27.927Z,29.67
2017-08-28T12:58:57.369Z,29.85
2017-08-28T13:01:28.644Z,31.03
2017-08-28T13:03:58.876Z,30.22
2017-08-28T13:06:28.372Z,28.96
2017-08-28T13:08:59.258Z,29.15
2017-08-28T13:11:30.362Z,29.80
2017-08-28T13:14:00.829Z,31.19
2017-08-28T13:16:30.864Z,32.59
2017-08-28T13:19:02.728Z,33.29
2017-08-28T13:21:34.149Z,33.79
2017-08-28T13:24:04.578Z,33.49
2017-08-28T13:26:35.525Z,34.80
2017-08-28T13:29:07.462Z,34.87
2017-08-28T13:31:40.311Z,34.96
2017-08-28T13:34:13.512Z,35.30
2017-08-28T13:36:42.954Z,33.65
2017-08-28T13:39:12.212Z,32.55
2017-08-28T13:41:41.664Z,31.14
2017-08-28T13:44:11.969Z,30.18
2017-08-28T13:46:42.911Z,29.22
2017-08-28T13:49:14.076Z,28.31
2017-08-28T13:51:43.538Z,27.41
2017-08-28T13:54:13.004Z,26.94
2017-08-28T13:56:45.300Z,26.63
2017-08-28T13:59:16.372Z,26.20
2017-08-28T14:01:47.327Z,25.64
2017-08-28T14:04:17.344Z,25.26
2017-08-28T14:06:47.849Z,25.02
2017-08-28T14:09:17.968Z,24.72
2017-08-28T14:11:47.429Z,24.54
2017-08-28T14:14:17.619Z,23.98
2017-08-28T14:16:47.671Z,23.64
2017-08-28T14:19:19.856Z,23.40
2017-08-28T14:21:50.771Z,23.39
2017-08-28T14:24:20.873Z,23.36
2017-08-28T14:26:52.901Z,23.25
2017-08-28T14:29:24.368Z,23.17
2017-08-28T14:31:56.536Z,23.17
2017-08-28T14:34:29.574Z,23.14
2017-08-28T14:37:00.673Z,23.16
2017-08-28T14:39:30.629Z,23.31
2017-08-28T14:42:00.717Z,23.41
2017-08-28T14:44:30.941Z,23.63
2017-08-28T14:47:04.145Z,23.83
2017-08-28T14:49:36.189Z,24.16
2017-08-28T14:52:07.217Z,24.55
2017-08-28T14:54:36.673Z,25.32
2017-08-28T14:57:06.773Z,26.21
2017-08-28T14:59:36.690Z,27.31
2017-08-28T15:02:06.805Z,28.46
2017-08-28T15:04:36.729Z,29.48
2017-08-28T15:07:06.933Z,30.27
2017-08-28T15:09:37.994Z,31.21
2017-08-28T15:12:07.454Z,31.56
2017-08-28T15:14:36.918Z,32.39
2017-08-28T15:17:08.317Z,33.26
2017-08-28T15:19:38.714Z,33.33
2017-08-28T15:22:10.118Z,33.08
2017-08-28T15:24:40.531Z,32.74
2017-08-28T15:27:12.441Z,33.47
2017-08-28T15:29:45.370Z,33.06
2017-08-28T15:32:16.404Z,33.09
2017-08-28T15:34:47.448Z,33.47
2017-08-28T15:37:18.480Z,31.25
2017-08-28T15:39:47.934Z,32.07
2017-08-28T15:42:19.349Z,33.32
2017-08-28T15:44:48.813Z,33.25
2017-08-28T15:47:19.850Z,33.81
2017-08-28T15:49:49.875Z,33.70
2017-08-28T15:52:19.321Z,33.65
2017-08-28T15:54:50.699Z,33.56
2017-08-28T15:57:21.311Z,33.77
2017-08-28T15:59:53.281Z,34.19
2017-08-28T16:02:23.678Z,34.29
2017-08-28T16:04:54.019Z,34.40
2017-08-28T16:07:25.278Z,34.43
2017-08-28T16:09:56.397Z,34.51
2017-08-28T16:12:25.875Z,34.61
2017-08-28T16:14:57.412Z,34.82
2017-08-28T16:17:26.937Z,34.46
2017-08-28T16:20:00.110Z,34.35
2017-08-28T16:22:29.679Z,34.23
2017-08-28T16:25:01.935Z,33.71
2017-08-28T16:27:31.386Z,33.52
2017-08-28T16:30:02.667Z,33.45
2017-08-28T16:32:34.263Z,33.40
2017-08-28T16:35:04.357Z,33.39
2017-08-28T16:37:33.881Z,33.00
2017-08-28T16:40:04.098Z,32.50
2017-08-28T16:42:33.540Z,32.24
2017-08-28T16:45:02.892Z,32.32
2017-08-28T16:47:32.336Z,32.09
2017-08-28T16:50:05.363Z,31.82
2017-08-28T16:52:36.998Z,30.69
2017-08-28T16:55:09.268Z,30.06
2017-08-28T16:57:40.480Z,29.54
2017-08-28T17:00:11.439Z,29.15
2017-08-28T17:02:40.948Z,28.52
2017-08-28T17:05:13.384Z,28.26
2017-08-28T17:07:44.141Z,27.72
2017-08-28T17:10:14.311Z,27.59
2017-08-28T17:12:45.572Z,27.24
2017-08-28T17:15:17.145Z,26.79
2017-08-28T17:17:48.619Z,26.40
2017-08-28T17:20:19.057Z,25.96
2017-08-28T17:22:48.320Z,25.61
2017-08-28T17:25:18.616Z,25.33
2017-08-28T17:27:48.123Z,24.98
2017-08-28T17:30:18.063Z,24.63
2017-08-28T17:32:49.586Z,24.35
2017-08-28T17:35:20.615Z,24.04
2017-08-28T17:37:50.994Z,23.81
2017-08-28T17:40:21.423Z,23.51
2017-08-28T17:42:52.897Z,23.28
2017-08-28T17:45:24.313Z,23.04
2017-08-28T17:47:54.196Z,22.84
2017-08-28T17:50:23.689Z,22.61
2017-08-28T17:52:57.147Z,22.37
2017-08-28T17:55:28.125Z,22.17
2017-08-28T17:57:59.341Z,22.04
2017-08-28T18:00:31.551Z,21.79
2017-08-28T18:03:00.862Z,21.56
2017-08-28T18:05:33.295Z,21.40
2017-08-28T18:08:06.466Z,21.25
2017-08-28T18:10:36.905Z,21.07
2017-08-28T18:13:06.373Z,20.96
2017-08-28T18:15:35.841Z,20.83
2017-08-28T18:18:06.141Z,20.72
2017-08-28T18:20:37.621Z,20.59
2017-08-28T18:23:06.923Z,20.51
2017-08-28T18:25:36.368Z,20.41
2017-08-28T18:28:05.824Z,20.35
2017-08-28T18:30:35.325Z,20.30
2017-08-28T18:33:07.557Z,20.26
2017-08-28T18:35:37.021Z,20.24
2017-08-28T18:38:07.118Z,20.19
2017-08-28T18:40:40.928Z,20.13
2017-08-28T18:43:10.398Z,20.08
2017-08-28T18:45:41.438Z,20.01
2017-08-28T18:48:10.888Z,19.99
2017-08-28T18:50:41.085Z,19.95
2017-08-28T18:53:11.111Z,19.98
2017-08-28T18:55:42.074Z,19.98
2017-08-28T18:58:13.117Z,19.96
2017-08-28T19:00:43.117Z,19.94
2017-08-28T19:03:12.393Z,19.95
2017-08-28T19:05:44.432Z,19.99
2017-08-28T19:08:16.494Z,20.00
2017-08-28T19:10:48.194Z,19.99
2017-08-28T19:13:19.415Z,19.94
2017-08-28T19:15:50.429Z,19.89
2017-08-28T19:18:19.717Z,19.85
2017-08-28T19:20:49.189Z,19.85
2017-08-28T19:23:20.822Z,19.83
2017-08-28T19:25:50.076Z,19.80
2017-08-28T19:28:21.144Z,19.77
2017-08-28T19:30:56.848Z,19.77
2017-08-28T19:33:42.566Z,19.74
2017-08-28T19:36:15.773Z,19.69
2017-08-28T19:38:45.621Z,19.63
2017-08-28T19:41:16.690Z,19.63
2017-08-28T19:43:46.741Z,19.60
2017-08-28T19:46:16.186Z,19.59
2017-08-28T19:48:47.639Z,19.58
2017-08-28T19:51:18.108Z,19.58
2017-08-28T19:53:48.231Z,19.57
2017-08-28T19:56:17.832Z,19.58
2017-08-28T19:58:48.779Z,19.57
2017-08-28T20:01:20.569Z,19.54
2017-08-28T20:03:51.646Z,19.52
2017-08-28T20:06:22.254Z,19.50
2017-08-28T20:08:53.094Z,19.49
2017-08-28T20:11:23.010Z,19.49
2017-08-28T20:13:54.896Z,19.47
2017-08-28T20:16:24.202Z,19.42
2017-08-28T20:18:55.620Z,19.37
2017-08-28T20:21:25.102Z,19.32
2017-08-28T20:23:56.383Z,19.34
2017-08-28T20:26:27.061Z,19.33
2017-08-28T20:28:56.518Z,19.20
2017-08-28T20:31:28.293Z,19.12
2017-08-28T20:33:59.613Z,19.02
2017-08-28T20:36:29.068Z,18.91
2017-08-28T20:39:01.352Z,18.81
2017-08-28T20:41:32.666Z,18.71
2017-08-28T20:44:04.249Z,18.64
2017-08-28T20:46:35.278Z,18.58
2017-08-28T20:49:07.567Z,18.51
2017-08-28T20:51:37.018Z,18.47
2017-08-28T20:54:07.240Z,18.43
2017-08-28T20:56:37.633Z,18.40
2017-08-28T20:59:08.785Z,18.37
2017-08-28T21:01:38.888Z,18.35
2017-08-28T21:04:08.149Z,18.30
2017-08-28T21:06:39.574Z,18.26
2017-08-28T21:09:10.508Z,18.22
2017-08-28T21:11:41.731Z,18.18
2017-08-28T21:14:12.020Z,18.13
2017-08-28T21:16:43.183Z,18.07
2017-08-28T21:19:13.192Z,17.99
2017-08-28T21:21:42.742Z,17.89
2017-08-28T21:24:13.892Z,17.82
2017-08-28T21:26:43.401Z,17.74
2017-08-28T21:29:13.606Z,17.64
2017-08-28T21:31:44.571Z,17.56
2017-08-28T21:34:14.037Z,17.53
2017-08-28T21:36:43.545Z,17.45
2017-08-28T21:39:14.906Z,17.36
2017-08-28T21:41:44.170Z,17.26
2017-08-28T21:44:14.252Z,17.17
2017-08-28T21:46:44.758Z,17.10
2017-08-28T21:49:15.783Z,17.01
2017-08-28T21:51:46.720Z,16.95
2017-08-28T21:54:16.175Z,16.88
2017-08-28T21:56:47.121Z,16.83
2017-08-28T21:59:17.253Z,16.79
2017-08-28T22:01:46.724Z,16.72
2017-08-28T22:04:20.052Z,16.66
2017-08-28T22:06:53.514Z,16.59
2017-08-28T22:09:25.956Z,16.57
2017-08-28T22:11:55.236Z,16.56
2017-08-28T22:14:24.696Z,16.53
2017-08-28T22:16:55.948Z,16.55
2017-08-28T22:19:26.394Z,16.53
2017-08-28T22:21:55.857Z,16.52
2017-08-28T22:24:25.754Z,16.51
2017-08-28T22:26:55.206Z,16.54
2017-08-28T22:29:25.209Z,16.52
2017-08-28T22:31:55.202Z,16.53
2017-08-28T22:34:24.661Z,16.53
2017-08-28T22:36:56.900Z,16.57
2017-08-28T22:39:27.587Z,16.55
2017-08-28T22:41:58.624Z,16.54
2017-08-28T22:44:29.120Z,16.50
2017-08-28T22:46:59.119Z,16.45
2017-08-28T22:49:29.357Z,16.40
2017-08-28T22:52:00.792Z,16.46
2017-08-28T22:54:30.268Z,16.36
2017-08-28T22:57:00.270Z,16.31
2017-08-28T22:59:29.768Z,16.24
2017-08-28T23:02:03.046Z,16.18
2017-08-28T23:04:34.462Z,16.12
2017-08-28T23:07:04.857Z,16.18
2017-08-28T23:09:34.329Z,16.14
2017-08-28T23:12:07.494Z,16.18
2017-08-28T23:14:39.773Z,16.10
2017-08-28T23:17:10.702Z,16.07
2017-08-28T23:19:41.201Z,16.04
2017-08-28T23:22:13.091Z,16.03
2017-08-28T23:24:43.719Z,16.03
2017-08-28T23:27:14.841Z,16.10
2017-08-28T23:29:45.577Z,16.16
2017-08-28T23:32:16.631Z,16.10
2017-08-28T23:34:47.084Z,16.13
2017-08-28T23:37:17.857Z,16.03
2017-08-28T23:39:48.901Z,15.96
2017-08-28T23:42:19.401Z,15.95
2017-08-28T23:44:49.821Z,15.96
2017-08-28T23:47:21.108Z,15.85
2017-08-28T23:49:50.575Z,15.76
2017-08-28T23:52:22.020Z,15.70
2017-08-28T23:54:51.449Z,15.63
2017-08-28T23:57:22.456Z,15.57
2017-08-28T23:59:51.898Z,15.53
